Map

Track Data

SID SEASON NUMBER BASIN SUBBASIN NAME ISO_TIME NATURE LAT LON WMO_WIND WMO_PRES WMO_AGENCY TRACK_TYPE DIST2LAND LANDFALL IFLAG USA_AGENCY USA_ATCF_ID USA_LAT USA_LON USA_RECORD USA_STATUS USA_WIND USA_PRES USA_SSHS USA_R34_NE USA_R34_SE USA_R34_SW USA_R34_NW USA_R50_NE USA_R50_SE USA_R50_SW USA_R50_NW USA_R64_NE USA_R64_SE USA_R64_SW USA_R64_NW USA_POCI USA_ROCI USA_RMW USA_EYE TOKYO_LAT TOKYO_LON TOKYO_GRADE TOKYO_WIND TOKYO_PRES TOKYO_R50_DIR TOKYO_R50_LONG TOKYO_R50_SHORT TOKYO_R30_DIR TOKYO_R30_LONG TOKYO_R30_SHORT TOKYO_LAND CMA_LAT CMA_LON CMA_CAT CMA_WIND CMA_PRES HKO_LAT HKO_LON HKO_CAT HKO_WIND HKO_PRES NEWDELHI_LAT NEWDELHI_LON NEWDELHI_GRADE NEWDELHI_WIND NEWDELHI_PRES NEWDELHI_CI NEWDELHI_DP NEWDELHI_POCI REUNION_LAT REUNION_LON REUNION_TYPE REUNION_WIND REUNION_PRES REUNION_TNUM REUNION_CI REUNION_RMW REUNION_R34_NE REUNION_R34_SE REUNION_R34_SW REUNION_R34_NW REUNION_R50_NE REUNION_R50_SE REUNION_R50_SW REUNION_R50_NW REUNION_R64_NE REUNION_R64_SE REUNION_R64_SW REUNION_R64_NW BOM_LAT BOM_LON BOM_TYPE BOM_WIND BOM_PRES BOM_TNUM BOM_CI BOM_RMW BOM_R34_NE BOM_R34_SE BOM_R34_SW BOM_R34_NW BOM_R50_NE BOM_R50_SE BOM_R50_SW BOM_R50_NW BOM_R64_NE BOM_R64_SE BOM_R64_SW BOM_R64_NW BOM_ROCI BOM_POCI BOM_EYE BOM_POS_METHOD BOM_PRES_METHOD NADI_LAT NADI_LON NADI_CAT NADI_WIND NADI_PRES WELLINGTON_LAT WELLINGTON_LON WELLINGTON_WIND WELLINGTON_PRES DS824_LAT DS824_LON DS824_STAGE DS824_WIND DS824_PRES TD9636_LAT TD9636_LON TD9636_STAGE TD9636_WIND TD9636_PRES TD9635_LAT TD9635_LON TD9635_WIND TD9635_PRES TD9635_ROCI NEUMANN_LAT NEUMANN_LON NEUMANN_CLASS NEUMANN_WIND NEUMANN_PRES MLC_LAT MLC_LON MLC_CLASS MLC_WIND MLC_PRES USA_GUST BOM_GUST BOM_GUST_PER REUNION_GUST REUNION_GUST_PER USA_SEAHGT USA_SEARAD_NE USA_SEARAD_SE USA_SEARAD_SW USA_SEARAD_NW STORM_SPEED STORM_DIR
2000205N10260 2000 50 EP MM DANIEL 2000-07-22 12:00:00 TS 10.0000 -100.000 main 712 712 O_____________ jtwc_ep EP062000 10.0000 -100.000 TD 20 -1 11 277
2000205N10260 2000 50 EP MM DANIEL 2000-07-22 15:00:00 TS 10.0653 -100.555 main 726 726 P_____________ EP062000 10.0653 -100.555 TD 20 -1 11 275
2000205N10260 2000 50 EP MM DANIEL 2000-07-22 18:00:00 TS 10.1000 -101.100 main 745 745 O_____________ jtwc_ep EP062000 10.1000 -101.100 TD 20 -1 11 271
2000205N10260 2000 50 EP MM DANIEL 2000-07-22 21:00:00 TS 10.0921 -101.648 main 766 766 P_____________ EP062000 10.0921 -101.648 TD 22 -1 12 270
2000205N10260 2000 50 EP MM DANIEL 2000-07-23 00:00:00 TS 10.1000 -102.300 25 1009 hurdat_epa main 790 790 O_____________ hurdat_epa EP062000 10.1000 -102.300 TD 25 1009 -1 15 273
2000205N10260 2000 50 EP MM DANIEL 2000-07-23 03:00:00 TS 10.1840 -103.176 main 820 820 P_____________ EP062000 10.1776 -103.155 TD 27 1009 -1 18 276
2000205N10260 2000 50 EP MM DANIEL 2000-07-23 06:00:00 TS 10.3000 -104.100 30 1009 hurdat_epa main 848 848 O_____________ hurdat_epa EP062000 10.3000 -104.100 TD 30 1009 -1 18 278
2000205N10260 2000 50 EP MM DANIEL 2000-07-23 09:00:00 TS 10.4423 -105.008 main 879 875 P_____________ EP062000 10.4423 -105.008 TD 30 1008 -1 18 280
2000205N10260 2000 50 EP MM DANIEL 2000-07-23 12:00:00 TS 10.6000 -105.900 30 1007 hurdat_epa main 899 899 O_____________ hurdat_epa EP062000 10.6000 -105.900 TD 30 1007 -1 18 280
2000205N10260 2000 50 EP MM DANIEL 2000-07-23 15:00:00 TS 10.7423 -106.773 main 921 911 P_____________ EP062000 10.7423 -106.773 TD 32 1005 -1 17 280
2000205N10260 2000 50 EP MM DANIEL 2000-07-23 18:00:00 TS 10.9000 -107.600 35 1004 hurdat_epa main 938 938 O_____________ hurdat_epa EP062000 10.9000 -107.600 TS 35 1004 0 16 282
2000205N10260 2000 50 EP MM DANIEL 2000-07-23 21:00:00 TS 11.0846 -108.358 main 962 962 P_____________ EP062000 11.0846 -108.358 TS 40 1002 0 15 285
2000205N10260 2000 50 EP MM DANIEL 2000-07-24 00:00:00 TS 11.3000 -109.100 45 1001 hurdat_epa main 988 988 O_____________ hurdat_epa EP062000 11.3000 -109.100 TS 45 1001 0 16 287
2000205N10260 2000 50 EP MM DANIEL 2000-07-24 03:00:00 TS 11.5423 -109.893 main 1020 1011 P_____________ EP062000 11.5423 -109.893 TS 50 999 0 16 288
2000205N10260 2000 50 EP MM DANIEL 2000-07-24 06:00:00 TS 11.8000 -110.700 55 997 hurdat_epa main 1041 1041 O_____________ hurdat_epa EP062000 11.8000 -110.700 TS 55 997 0 16 288
2000205N10260 2000 50 EP MM DANIEL 2000-07-24 09:00:00 TS 12.0421 -111.485 main 1078 1070 P_____________ EP062000 12.0421 -111.485 TS 60 994 0 16 288
2000205N10260 2000 50 EP MM DANIEL 2000-07-24 12:00:00 TS 12.3000 -112.300 65 991 hurdat_epa main 1113 1113 O_____________ hurdat_epa EP062000 12.3000 -112.300 HU 65 991 1 17 289
2000205N10260 2000 50 EP MM DANIEL 2000-07-24 15:00:00 TS 12.5998 -113.178 main 1158 1158 P_____________ EP062000 12.5998 -113.178 HU 70 985 1 19 289
2000205N10260 2000 50 EP MM DANIEL 2000-07-24 18:00:00 TS 12.9000 -114.100 75 980 hurdat_epa main 1199 1197 O_____________ hurdat_epa EP062000 12.9000 -114.100 HU 75 980 1 19 287
2000205N10260 2000 50 EP MM DANIEL 2000-07-24 21:00:00 TS 13.1648 -115.050 main 1211 1211 P_____________ EP062000 13.1648 -115.050 HU 85 975 2 19 285
2000205N10260 2000 50 EP MM DANIEL 2000-07-25 00:00:00 TS 13.4000 -116.000 95 970 hurdat_epa main 1237 1237 O_____________ hurdat_epa EP062000 13.4000 -116.000 HU 95 970 2 19 284
2000205N10260 2000 50 EP MM DANIEL 2000-07-25 03:00:00 TS 13.6222 -116.923 main 1269 1269 P_____________ EP062000 13.6222 -116.923 HU 97 967 3 18 283
2000205N10260 2000 50 EP MM DANIEL 2000-07-25 06:00:00 TS 13.8000 -117.800 100 964 hurdat_epa main 1308 1308 O_____________ hurdat_epa EP062000 13.8000 -117.800 HU 100 964 3 17 280
2000205N10260 2000 50 EP MM DANIEL 2000-07-25 09:00:00 TS 13.9070 -118.608 main 1354 1354 P_____________ EP062000 13.9070 -118.608 HU 102 959 3 16 277
2000205N10260 2000 50 EP MM DANIEL 2000-07-25 12:00:00 TS 14.0000 -119.400 105 955 hurdat_epa main 1404 1404 O_____________ hurdat_epa EP062000 14.0000 -119.400 HU 105 955 3 16 279
2000205N10260 2000 50 EP MM DANIEL 2000-07-25 15:00:00 TS 14.1500 -120.265 main 1454 1454 P_____________ EP062000 14.1500 -120.265 HU 107 954 3 17 280
2000205N10260 2000 50 EP MM DANIEL 2000-07-25 18:00:00 TS 14.3000 -121.100 110 954 hurdat_epa main 1496 1496 O_____________ hurdat_epa EP062000 14.3000 -121.100 HU 110 954 3 15 279
2000205N10260 2000 50 EP MM DANIEL 2000-07-25 21:00:00 TS 14.3921 -121.823 main 1534 1534 P_____________ EP062000 14.3921 -121.823 HU 110 954 3 14 278
2000205N10260 2000 50 EP MM DANIEL 2000-07-26 00:00:00 TS 14.5000 -122.500 110 954 hurdat_epa main 1575 1575 O_____________ hurdat_epa EP062000 14.5000 -122.500 HU 110 954 3 14 282
2000205N10260 2000 50 EP MM DANIEL 2000-07-26 03:00:00 TS 14.6848 -123.200 main 1611 1611 P_____________ EP062000 14.6848 -123.200 HU 107 955 3 14 286
2000205N10260 2000 50 EP MM DANIEL 2000-07-26 06:00:00 TS 14.9000 -123.900 105 956 hurdat_epa main 1648 1648 O_____________ hurdat_epa EP062000 14.9000 -123.900 HU 105 956 3 14 288
2000205N10260 2000 50 EP MM DANIEL 2000-07-26 09:00:00 TS 15.1146 -124.578 main 1688 1688 P_____________ EP062000 15.1146 -124.578 HU 105 957 3 14 286
2000205N10260 2000 50 EP MM DANIEL 2000-07-26 12:00:00 TS 15.3000 -125.300 105 959 hurdat_epa main 1730 1730 O_____________ hurdat_epa EP062000 15.3000 -125.300 HU 105 959 3 15 282
2000205N10260 2000 50 EP MM DANIEL 2000-07-26 15:00:00 TS 15.4226 -126.143 main 1788 1788 P_____________ EP062000 15.4226 -126.143 HU 105 960 3 17 277
2000205N10260 2000 50 EP MM DANIEL 2000-07-26 18:00:00 TS 15.5000 -127.000 105 961 hurdat_epa main 1841 1841 O_____________ hurdat_epa EP062000 15.5000 -127.000 HU 105 961 3 16 275
2000205N10260 2000 50 EP MM DANIEL 2000-07-26 21:00:00 TS 15.5570 -127.758 main 1889 1889 P_____________ EP062000 15.5570 -127.758 HU 102 962 3 15 274
2000205N10260 2000 50 EP MM DANIEL 2000-07-27 00:00:00 TS 15.6000 -128.500 100 963 hurdat_epa main 1940 1940 O_____________ hurdat_epa EP062000 15.6000 -128.500 HU 100 963 3 15 273
2000205N10260 2000 50 EP MM DANIEL 2000-07-27 03:00:00 TS 15.6424 -129.300 main 1999 1999 P_____________ EP062000 15.6424 -129.300 HU 97 963 3 15 274
2000205N10260 2000 50 EP MM DANIEL 2000-07-27 06:00:00 TS 15.7000 -130.100 95 964 hurdat_epa main 2053 2053 O_____________ hurdat_epa EP062000 15.7000 -130.100 HU 95 964 2 15 276
2000205N10260 2000 50 EP MM DANIEL 2000-07-27 09:00:00 TS 15.7996 -130.850 main 2101 2101 P_____________ EP062000 15.7996 -130.850 HU 92 964 2 15 278
2000205N10260 2000 50 EP MM DANIEL 2000-07-27 12:00:00 TS 15.9000 -131.600 90 965 hurdat_epa main 2158 2158 O_____________ hurdat_epa EP062000 15.9000 -131.600 HU 90 965 2 15 275
2000205N10260 2000 50 EP MM DANIEL 2000-07-27 15:00:00 TS 15.9348 -132.393 main 2223 2223 P_____________ EP062000 15.9348 -132.393 HU 92 964 2 15 274
2000205N10260 2000 50 EP MM DANIEL 2000-07-27 18:00:00 TS 16.0000 -133.200 95 964 hurdat_epa main 2283 2231 O_____________ hurdat_epa EP062000 16.0000 -133.200 HU 95 964 2 16 279
2000205N10260 2000 50 EP MM DANIEL 2000-07-27 21:00:00 TS 16.1772 -134.000 main 2231 2142 P_____________ EP062000 16.1772 -134.000 HU 95 963 2 16 285
2000205N10260 2000 50 EP MM DANIEL 2000-07-28 00:00:00 TS 16.4000 -134.800 95 962 hurdat_epa main 2142 2065 O_____________ hurdat_epa EP062000 16.4000 -134.800 HU 95 962 2 16 286
2000205N10260 2000 50 EP MM DANIEL 2000-07-28 03:00:00 TS 16.5995 -135.585 main 2054 1966 P_____________ EP062000 16.5995 -135.585 HU 100 961 3 16 285
2000205N10260 2000 50 EP MM DANIEL 2000-07-28 06:00:00 TS 16.8000 -136.400 105 961 hurdat_epa main 1966 1868 O_____________ hurdat_epa EP062000 16.8000 -136.400 HU 105 961 3 17 284
2000205N10260 2000 50 EP MM DANIEL 2000-07-28 09:00:00 TS 17.0077 -137.315 main 1868 1770 P_____________ EP062000 17.0077 -137.315 HU 102 962 3 18 283
2000205N10260 2000 50 EP MM DANIEL 2000-07-28 12:00:00 TS 17.2000 -138.200 100 963 hurdat_epa main 1770 1695 O_____________ hurdat_epa EP062000 17.2000 -138.200 HU 100 963 3 16 282
2000205N10260 2000 50 EP MM DANIEL 2000-07-28 15:00:00 TS 17.3417 -138.908 main 1695 1617 P_____________ EP062000 17.3417 -138.908 HU 95 965 2 14 283
2000205N10260 2000 50 EP MM DANIEL 2000-07-28 18:00:00 TS 17.5000 -139.600 90 968 hurdat_epa main 1617 1530 O_____________ hurdat_epa EP062000 17.5000 -139.600 HU 90 968 2 15 285
2000205N10260 2000 50 EP CP DANIEL 2000-07-28 21:00:00 TS 17.7425 -140.435 main 1530 1431 P_____________ EP062000 17.7425 -140.435 HU 85 974 2 17 287
2000205N10260 2000 50 EP CP DANIEL 2000-07-29 00:00:00 TS 18.0000 -141.300 80 980 hurdat_epa main 1431 1344 O_____________ hurdat_epa EP062000 18.0000 -141.300 HU 80 980 1 17 287
2000205N10260 2000 50 EP CP DANIEL 2000-07-29 03:00:00 TS 18.2135 -142.097 main 1344 1257 P_____________ EP062000 18.2145 -142.100 HU 72 985 1 16 285
2000205N10260 2000 50 EP CP DANIEL 2000-07-29 06:00:00 TS 18.4000 -142.900 65 990 hurdat_epa main 1257 1170 O_____________ hurdat_epa EP062000 18.4000 -142.900 HU 65 990 1 16 283
2000205N10260 2000 50 EP CP DANIEL 2000-07-29 09:00:00 TS 18.5647 -143.751 main 1160 1075 P_____________ EP062000 18.5647 -143.743 HU 65 990 1 17 280
2000205N10260 2000 50 EP CP DANIEL 2000-07-29 12:00:00 TS 18.7000 -144.625 65 990 hurdat_epa main 1075 979 O_____________ hurdat_epa EP062000 18.7000 -144.600 HU 65 990 1 17 278
2000205N10260 2000 50 EP CP DANIEL 2000-07-29 15:00:00 TS 18.7925 -145.528 main 979 895 P_____________ EP062000 18.7924 -145.473 HU 65 990 1 17 277
2000205N10260 2000 50 EP CP DANIEL 2000-07-29 18:00:00 TS 18.9000 -146.375 65 990 hurdat_epa main 884 809 O_____________ hurdat_epa EP062000 18.9000 -146.300 HU 65 990 1 15 281
2000205N10260 2000 50 EP CP DANIEL 2000-07-29 21:00:00 TS 19.0771 -147.097 main 809 744 P_____________ EP062000 19.0771 -147.038 HU 62 992 0 13 287
2000205N10260 2000 50 EP CP DANIEL 2000-07-30 00:00:00 TS 19.3000 -147.725 60 995 hurdat_epa main 744 681 O_____________ hurdat_epa EP062000 19.3000 -147.700 TS 60 995 0 12 293
2000205N10260 2000 50 EP CP DANIEL 2000-07-30 03:00:00 TS 19.5553 -148.303 main 681 629 P_____________ EP062000 19.5572 -148.322 TS 57 996 0 12 295
2000205N10260 2000 50 EP CP DANIEL 2000-07-30 06:00:00 TS 19.8000 -148.850 55 997 hurdat_epa main 629 567 O_____________ hurdat_epa EP062000 19.8000 -148.900 TS 55 997 0 11 291
2000205N10260 2000 50 EP CP DANIEL 2000-07-30 09:00:00 TS 19.9718 -149.433 main 567 506 P_____________ EP062000 19.9573 -149.465 TS 55 997 0 11 287
2000205N10260 2000 50 EP CP DANIEL 2000-07-30 12:00:00 TS 20.1250 -150.000 55 997 hurdat_epa main 506 458 O_____________ hurdat_epa EP062000 20.1000 -150.000 TS 55 997 0 11 289
2000205N10260 2000 50 EP CP DANIEL 2000-07-30 15:00:00 TS 20.3237 -150.541 main 458 412 P_____________ EP062000 20.3074 -150.522 TS 52 996 0 10 291
2000205N10260 2000 50 EP CP DANIEL 2000-07-30 18:00:00 TS 20.5000 -151.025 50 995 hurdat_epa main 412 375 O_____________ hurdat_epa EP062000 20.5000 -151.000 TS 50 995 0 9 289
2000205N10260 2000 50 EP CP DANIEL 2000-07-30 21:00:00 TS 20.6061 -151.437 main 375 340 P_____________ EP062000 20.6223 -151.423 TS 52 994 0 7 284
2000205N10260 2000 50 EP CP DANIEL 2000-07-31 00:00:00 TS 20.6750 -151.800 55 993 hurdat_epa main 340 312 O_____________ hurdat_epa EP062000 20.7000 -151.800 TS 55 993 0 7 281
2000205N10260 2000 50 EP CP DANIEL 2000-07-31 03:00:00 TS 20.7374 -152.163 main 302 280 P_____________ EP062000 20.7499 -152.165 TS 52 994 0 7 281
2000205N10260 2000 50 EP CP DANIEL 2000-07-31 06:00:00 TS 20.8000 -152.500 50 995 hurdat_epa main 280 260 O_____________ hurdat_epa EP062000 20.8000 -152.500 TS 50 995 0 6 283
2000205N10260 2000 50 EP CP DANIEL 2000-07-31 09:00:00 TS 20.8724 -152.802 main 260 241 P_____________ EP062000 20.8849 -152.800 TS 47 996 0 6 287
2000205N10260 2000 50 EP CP DANIEL 2000-07-31 12:00:00 TS 20.9750 -153.100 45 998 hurdat_epa main 241 222 O_____________ hurdat_epa EP062000 21.0000 -153.100 TS 45 998 0 6 292
2000205N10260 2000 50 EP CP DANIEL 2000-07-31 15:00:00 TS 21.1112 -153.428 main 222 205 P_____________ EP062000 21.1275 -153.443 TS 52 995 0 7 297
2000205N10260 2000 50 EP CP DANIEL 2000-07-31 18:00:00 TS 21.3000 -153.775 60 993 hurdat_epa main 205 200 O_____________ hurdat_epa EP062000 21.3000 -153.800 TS 60 993 0 8 304
2000205N10260 2000 50 EP CP DANIEL 2000-07-31 21:00:00 TS 21.5512 -154.134 main 212 191 P_____________ EP062000 21.5349 -154.150 TS 60 995 0 9 308
2000205N10260 2000 50 EP CP DANIEL 2000-08-01 00:00:00 TS 21.8250 -154.500 60 998 hurdat_epa main 191 182 O_____________ hurdat_epa EP062000 21.8000 -154.500 TS 60 998 0 8 308
2000205N10260 2000 50 EP CP DANIEL 2000-08-01 03:00:00 TS 22.0642 -154.853 main 184 178 P_____________ EP062000 22.0423 -154.835 TS 55 999 0 8 305
2000205N10260 2000 50 EP CP DANIEL 2000-08-01 06:00:00 TS 22.3000 -155.225 50 1001 hurdat_epa main 187 182 O_____________ hurdat_epa EP062000 22.3000 -155.200 TS 50 1001 0 8 303
2000205N10260 2000 50 EP CP DANIEL 2000-08-01 09:00:00 TS 22.5179 -155.621 main 194 192 P_____________ EP062000 22.5849 -155.620 TS 47 1002 0 9 302
2000205N10260 2000 50 EP CP DANIEL 2000-08-01 12:00:00 TS 22.8000 -156.075 45 1004 hurdat_epa main 216 216 O_____________ hurdat_epa EP062000 22.9000 -156.100 TS 45 1004 0 12 309
2000205N10260 2000 50 EP CP DANIEL 2000-08-01 15:00:00 TS 23.2481 -156.611 main 223 223 P_____________ EP062000 23.2499 -156.628 TS 45 1005 0 14 311
2000205N10260 2000 50 EP CP DANIEL 2000-08-01 18:00:00 TS 23.7000 -157.200 45 1006 hurdat_epa main 245 242 O_____________ hurdat_epa EP062000 23.6000 -157.200 TS 45 1006 0 13 304
2000205N10260 2000 50 EP CP DANIEL 2000-08-01 21:00:00 TS 23.9755 -157.797 main 261 250 P_____________ EP062000 23.8924 -157.793 TS 42 1007 0 12 296
2000205N10260 2000 50 EP CP DANIEL 2000-08-02 00:00:00 TS 24.2250 -158.400 40 1008 hurdat_epa main 252 252 O_____________ hurdat_epa EP062000 24.2000 -158.400 TS 40 1008 0 12 299
2000205N10260 2000 50 EP CP DANIEL 2000-08-02 03:00:00 TS 24.5646 -158.978 main 281 280 P_____________ EP062000 24.5847 -158.993 TS 42 1007 0 13 304
2000205N10260 2000 50 EP CP DANIEL 2000-08-02 06:00:00 TS 24.9500 -159.575 45 1006 hurdat_epa main 324 312 O_____________ hurdat_epa EP062000 25.0000 -159.600 TS 45 1006 0 14 304
2000205N10260 2000 50 EP CP DANIEL 2000-08-02 09:00:00 TS 25.3323 -160.221 main 361 361 P_____________ EP062000 25.3772 -160.236 TS 45 1006 0 15 305
2000205N10260 2000 50 EP CP DANIEL 2000-08-02 12:00:00 TS 25.7750 -160.900 45 1007 hurdat_epa main 431 431 O_____________ hurdat_epa EP062000 25.8000 -160.900 TS 45 1007 0 16 309
2000205N10260 2000 50 EP CP DANIEL 2000-08-02 15:00:00 TS 26.3222 -161.593 main 507 507 P_____________ EP062000 26.3348 -161.593 TS 45 1007 0 17 312
2000205N10260 2000 50 EP CP DANIEL 2000-08-02 18:00:00 TS 26.9000 -162.300 45 1008 hurdat_epa main 597 597 O_____________ hurdat_epa EP062000 26.9000 -162.300 TS 45 1008 0 17 311
2000205N10260 2000 50 EP CP DANIEL 2000-08-02 21:00:00 TS 27.4309 -163.009 main 679 679 P_____________ EP062000 27.4145 -162.993 TS 42 1009 0 16 309
2000205N10260 2000 50 EP CP DANIEL 2000-08-03 00:00:00 TS 27.9250 -163.725 40 1010 hurdat_epa main 762 762 O_____________ hurdat_epa EP062000 27.9000 -163.700 TS 40 1010 0 16 306
2000205N10260 2000 50 EP CP DANIEL 2000-08-03 03:00:00 TS 28.3641 -164.456 main 853 853 P_____________ EP062000 28.3499 -164.458 TS 37 1009 0 15 304
2000205N10260 2000 50 EP CP DANIEL 2000-08-03 06:00:00 TS 28.8000 -165.175 35 1008 hurdat_epa main 929 929 O_____________ hurdat_epa EP062000 28.8000 -165.200 TS 35 1008 0 16 307
2000205N10260 2000 50 EP CP DANIEL 2000-08-03 09:00:00 TS 29.3111 -165.876 main 1015 1015 P_____________ EP062000 29.3146 -165.880 TS 32 1008 -1 15 310
2000205N10260 2000 50 EP CP DANIEL 2000-08-03 12:00:00 TS 29.8000 -166.525 30 1009 hurdat_epa main 1095 1095 O_____________ hurdat_epa EP062000 29.8000 -166.500 TD 30 1009 -1 14 309
2000205N10260 2000 50 EP CP DANIEL 2000-08-03 15:00:00 TS 30.1715 -167.104 main 1166 1166 P_____________ EP062000 30.1571 -167.074 TD 30 1009 -1 12 307
2000205N10260 2000 50 EP CP DANIEL 2000-08-03 18:00:00 TS 30.5250 -167.625 30 1010 hurdat_epa main 1223 1223 O_____________ hurdat_epa EP062000 30.5000 -167.600 TD 30 1010 -1 12 311
2000205N10260 2000 50 EP CP DANIEL 2000-08-03 21:00:00 TS 30.9549 -168.141 main 1297 1297 P_____________ EP062000 30.9424 -168.130 TD 30 1011 -1 12 316
2000205N10260 2000 50 EP CP DANIEL 2000-08-04 00:00:00 TS 31.4000 -168.600 30 1012 hurdat_epa main 1361 1361 O_____________ hurdat_epa EP062000 31.4000 -168.600 TD 30 1012 -1 11 320
2000205N10260 2000 50 EP CP DANIEL 2000-08-04 03:00:00 TS 31.8179 -168.991 main 1420 1420 P_____________ EP062000 31.8072 -168.981 TD 30 1012 -1 10 323
2000205N10260 2000 50 EP CP DANIEL 2000-08-04 06:00:00 TS 32.2250 -169.325 30 1012 hurdat_epa main 1472 1472 O_____________ hurdat_epa EP062000 32.2000 -169.300 TD 30 1012 -1 10 325
2000205N10260 2000 50 EP CP DANIEL 2000-08-04 09:00:00 TS 32.6212 -169.651 main 1530 1530 P_____________ EP062000 32.5925 -169.623 TD 27 1012 -1 9 328
2000205N10260 2000 50 EP CP DANIEL 2000-08-04 12:00:00 TS 33.0250 -169.925 25 1013 hurdat_epa main 1576 1576 O_____________ hurdat_epa EP062000 33.0000 -169.900 TD 25 1013 -1 9 333
2000205N10260 2000 50 EP CP DANIEL 2000-08-04 15:00:00 TS 33.4418 -170.143 main 1621 1621 P_____________ EP062000 33.4274 -170.130 TD 25 1014 -1 9 340
2000205N10260 2000 50 EP CP DANIEL 2000-08-04 18:00:00 TS 33.9000 -170.300 25 1015 hurdat_epa main 1675 1675 O_____________ hurdat_epa EP062000 33.9000 -170.300 TD 25 1015 -1 10 347
2000205N10260 2000 50 EP CP DANIEL 2000-08-04 21:00:00 TS 34.4187 -170.413 main 1724 1724 P_____________ EP062000 34.4349 -170.415 TD 25 1016 -1 11 351
2000205N10260 2000 50 EP CP DANIEL 2000-08-05 00:00:00 TS 34.9750 -170.500 25 1017 hurdat_epa main 1781 1781 O_____________ hurdat_epa EP062000 35.0000 -170.500 TD 25 1017 -1 11 352
2000205N10260 2000 50 EP CP DANIEL 2000-08-05 03:00:00 TS 35.5375 -170.595 main 1830 1830 P_____________ EP062000 35.5550 -170.595 TD 25 1017 -1 11 352
2000205N10260 2000 50 EP CP DANIEL 2000-08-05 06:00:00 TS 36.1000 -170.700 25 1017 hurdat_epa main 1872 O_____________ hurdat_epa EP062000 36.1000 -170.700 TD 25 1017 -1 11 351

About IBTrACS Database

This database is a web-friendly format of International Best Track Archive for Climate Stewardship (IBTrACS), a global best track data archive curated by NOAA dating back to 1842.

Updated: 2021-10-08